Terminal Aerodrome Forecast
Issued by NWS Green Bay, WI

Home | Current Version | Previous Version | Graphics & Text | Print | Product List | Glossary On
Versions: 1 2 3 4 5 6 7 8 9 10 11 12 13 14 15 16 17 18 19 20 21 22 23 24 25 26 27 28 29 30 31 32 33 34 35 36 37 38 39 40 41 42 43 44 45 46 47 48 49
000
FTUS43 KGRB 191739
TAFGRB
TAF
KGRB 191739Z 1918/2018 27007KT P6SM VCSH BKN020
      TEMPO 1918/1921 6SM -SHRA SCT020 BKN035
     FM192100 29007KT P6SM VCSH SCT025 BKN035
     FM200300 31003KT 3SM BR SCT005 BKN025
     FM200600 32003KT 3/4SM BR BKN005
     FM201500 32005KT 3SM BR BKN008=

USA.gov is the U.S. government's official web portal to all federal, state and local government web resources and services.